Rockport, TX

3:52 AM CDT on August 29, 2016 (GMT -0500)
Palm Harbor-Buddy's Place | | Change Station

Elev 10 ft 27.97 °N, 97.09 °W | Updated 1 minute ago

Scattered Clouds
Scattered Clouds
76.7 °F
Feels Like 77 °F
N
2.0
Wind Variable Wind from NW
Gusts 10.0 mph

Today
High -- | Low -- °F
--% Chance of Precip.
Yesterday
High -- | Low -- °F
Precip. -- in
Pressure 29.88 in
Visibility 10.0 miles
Clouds Scattered Clouds 800 ft
Heat Index 77 °F
Dew Point 75 °F
Humidity 94%
Rainfall 0.00 in
Snow Depth Not available.
7:05 AM 7:51 PM
Waning Crescent, 10% visible
SPECI KRKP 290844Z AUTO 02008KT 10SM SCT008 25/23 A2988 RMK AO2 T02500228
Pressure 29.88 in
Visibility 10.0 miles
Clouds Scattered Clouds 800 ft
Heat Index 77 °F
Dew Point 75 °F
Humidity 94%
Rainfall 0.00 in
Snow Depth Not available.
7:05 AM 7:51 PM
Waning Crescent, 10% visible
SPECI KRKP 290844Z AUTO 02008KT 10SM SCT008 25/23 A2988 RMK AO2 T02500228

10-Day Weather Forecast

Almanac

Astronomy

Aug. 29, 2016 Rise Set
Actual Time
Civil Twilight
Nautical Twilight
Astronomical Twilight
Moon
Length of Visible Light
Length of Day
Tomorrow will be .
, % of the Moon is Illuminated

Today's Extremes

State Highs State Lows

Community

WunderPhotos

Upload Photos

1,935,800 photos uploaded!

WunderBlog® & News

Nearby

Air Quality

  Air Quality AQ Index Pollutant
Not available.

Snow Depth

Station Depth Elevation

Earthquake Activity

City Distance Mag. Time & Date
Minimum magnitude displayed is 2.5.

Coastal Water Temperatures

Place Temperature

Stations

Nearby Weather Stations

Station Location Temp. Windchill Dew Point Humidity Wind Precip. Elev Updated Type
                   

Watches & Warnings

There are currently no watches in effect.